Terminal Aerodrome Forecast
Issued by NWS

Home | Current Version | Previous Version | Graphics & Text | Print | Product List | Glossary On
Versions: 1 2 3 4 5 6 7 8 9 10 11 12 13 14 15 16 17 18 19 20 21 22
000
FTUS43 KBIS 181100
TAFJMS
TAF
KJMS 181120Z 1812/1912 00000KT 4SM BR SKC
      TEMPO 1812/1814 1/2SM FG OVC005
     FM181400 13008KT P6SM SKC
     FM181800 16017G24KT P6SM SCT120
     FM190300 18013KT P6SM BKN090=

USA.gov is the U.S. government's official web portal to all federal, state and local government web resources and services.